KBCT

Boca Raton Airport

Boca Raton, Florida, USA
METAR KBCT 161347Z 36004KT 10SM CLR 18/15 A3022
Observed Flight Rules
Dec-16 @ 13:47 UTC (an hour ago) Visual Flight Rules
Wind Visibility Clouds
360° at 4 knots 10 miles
  • Clear skies
Temperatures Readings
Current 18°C / 64°F
Dewpoint 15°C / 59°F
Humidity 83%
Altimeter 30.22" Hg
Pressure 1023 hPa
Elevation 4
METAR KBCT 161347Z 36004KT 10SM CLR 18/15 A3022
Observed Flight Rules
Dec-16 @ 13:47 UTC
(an hour ago)
VFR
Wind Visibility
360° at 4 knots 10 miles
Clouds
  • Clear skies
Temperature Dewpoint
18°C / 64°F 15°C / 59°F
Humidity Altimeter Pressure
83% 30.22" Hg 1023 hPa